Gold Lake Estates, Arkansas
Current Conditions -  °F | °C
As of 11:58 AM on Wednesday 26 Nov 2014 (Local Time) from KLRF Reporting Station
Few Clouds Few Clouds  
Wind Chill: 46°   Ceiling: Unl
Heat Index: 49°   Visibility: 10mi
Dew Point: 34°   Wind: 7mph
Humidity: 57%   Direction: 280°W
Pressure: 30"   Gusts: NA
Location:  35.0822°N, 92.366°W
Report Text: KLRF 261758Z AUTO 28006KT 10SM FEW150 09/01 A3000 RMK AO2 SLP164 T00940013 10094 21033 57014 $
Loading
Personal Weather Stations






























Interactive Weather Map New forecast layout! Learn more

10-Day Weather Forecast

Advertisements
Track Severe Weather on mobile